createdAt,value
2023-05-22T00:00:02.984Z,70.8
2023-05-22T00:03:03.433Z,70.8
2023-05-22T00:06:02.997Z,70.8
2023-05-22T00:09:03.009Z,70.8
2023-05-22T00:12:03.022Z,70.8
2023-05-22T00:15:03.033Z,70.8
2023-05-22T00:18:03.097Z,70.8
2023-05-22T00:21:03.008Z,70.8
2023-05-22T00:24:02.986Z,70.8
2023-05-22T00:27:03.038Z,70.8
2023-05-22T00:30:03.053Z,70.8
2023-05-22T00:33:03.196Z,70.8
2023-05-22T00:36:02.974Z,70.8
2023-05-22T00:39:02.951Z,72
2023-05-22T00:42:02.975Z,72
2023-05-22T00:45:03.033Z,72
2023-05-22T00:48:03.086Z,72
2023-05-22T00:51:03.069Z,72
2023-05-22T00:54:03.072Z,72
2023-05-22T00:57:02.980Z,72
2023-05-22T01:00:03.018Z,72
2023-05-22T01:03:03.233Z,72
2023-05-22T01:06:02.946Z,72
2023-05-22T01:09:03.032Z,72
2023-05-22T01:12:02.970Z,72
2023-05-22T01:15:02.968Z,73.6
2023-05-22T01:18:03.039Z,73.6
2023-05-22T01:21:02.996Z,73.6
2023-05-22T01:24:02.988Z,73.6
2023-05-22T01:27:03.045Z,73.6
2023-05-22T01:30:02.992Z,73.6
2023-05-22T01:33:03.364Z,73.6
2023-05-22T01:36:02.951Z,73.6
2023-05-22T01:39:02.984Z,73.6
2023-05-22T01:42:02.997Z,73.6
2023-05-22T01:45:03.089Z,73.6
2023-05-22T01:48:03.111Z,73.6
2023-05-22T01:51:02.968Z,73.6
2023-05-22T01:54:03.023Z,73.6
2023-05-22T01:57:03.000Z,75.2
2023-05-22T02:00:02.989Z,75.2
2023-05-22T02:03:03.225Z,75.2
2023-05-22T02:06:03.031Z,75.2
2023-05-22T02:09:03.004Z,75.2
2023-05-22T02:12:03.025Z,75.2
2023-05-22T02:15:03.326Z,75.2
2023-05-22T02:18:03.364Z,75.2
2023-05-22T02:21:02.963Z,75.2
2023-05-22T02:24:03.056Z,75
2023-05-22T02:27:03.034Z,75
2023-05-22T02:30:03.004Z,75
2023-05-22T02:33:03.163Z,75
2023-05-22T02:36:03.043Z,75
2023-05-22T02:39:02.988Z,75
2023-05-22T02:42:03.033Z,75
2023-05-22T02:45:03.040Z,75
2023-05-22T02:48:03.203Z,75
2023-05-22T02:51:02.981Z,75
2023-05-22T02:54:03.021Z,75
2023-05-22T02:57:02.993Z,75
2023-05-22T03:00:03.030Z,75
2023-05-22T03:03:03.234Z,75
2023-05-22T03:06:03.023Z,75
2023-05-22T03:09:02.965Z,75
2023-05-22T03:12:03.029Z,75
2023-05-22T03:15:03.055Z,75
2023-05-22T03:18:03.281Z,75
2023-05-22T03:21:03.023Z,75
2023-05-22T03:24:03.057Z,75
2023-05-22T03:27:03.064Z,75
2023-05-22T03:30:03.035Z,75
2023-05-22T03:33:03.302Z,75
2023-05-22T03:36:03.040Z,75
2023-05-22T03:39:03.104Z,75
2023-05-22T03:42:03.166Z,75
2023-05-22T03:45:03.079Z,75
2023-05-22T03:48:03.256Z,75
2023-05-22T03:51:03.045Z,75
2023-05-22T03:54:03.075Z,75
2023-05-22T03:57:03.116Z,75
2023-05-22T04:00:03.099Z,75
2023-05-22T04:03:03.501Z,75
2023-05-22T04:06:03.040Z,75
2023-05-22T04:09:03.091Z,75
2023-05-22T04:12:03.038Z,75
2023-05-22T04:15:03.074Z,75
2023-05-22T04:18:03.249Z,75
2023-05-22T04:21:03.063Z,75
2023-05-22T04:24:02.999Z,75
2023-05-22T04:27:03.057Z,75
2023-05-22T04:30:03.013Z,75
2023-05-22T04:33:03.273Z,75
2023-05-22T04:36:03.065Z,75
2023-05-22T04:39:03.210Z,75
2023-05-22T04:42:03.013Z,75
2023-05-22T04:45:03.325Z,75
2023-05-22T04:48:03.257Z,75
2023-05-22T04:51:03.025Z,75
2023-05-22T04:54:03.047Z,75
2023-05-22T04:57:03.065Z,75
2023-05-22T05:00:03.101Z,75
2023-05-22T05:03:03.307Z,75
2023-05-22T05:06:03.112Z,75
2023-05-22T05:09:03.036Z,75
2023-05-22T05:12:03.016Z,75
2023-05-22T05:15:03.128Z,75
2023-05-22T05:18:03.129Z,77.9
2023-05-22T05:21:03.051Z,77.9
2023-05-22T05:24:03.096Z,77.9
2023-05-22T05:27:03.054Z,77.9
2023-05-22T05:30:03.362Z,77.9
2023-05-22T05:33:03.279Z,77.9
2023-05-22T05:36:03.044Z,78.5
2023-05-22T05:39:03.054Z,78.5
2023-05-22T05:42:03.040Z,78.5
2023-05-22T05:45:03.055Z,78.5
2023-05-22T05:48:03.310Z,78.5
2023-05-22T05:51:03.142Z,76.6
2023-05-22T05:54:03.079Z,76.6
2023-05-22T05:57:03.601Z,76.6
2023-05-22T06:00:03.208Z,76.6
2023-05-22T06:03:03.533Z,76.6
2023-05-22T06:06:03.534Z,76.6
2023-05-22T06:09:03.042Z,74.8
2023-05-22T06:12:03.008Z,74.8
2023-05-22T06:15:03.150Z,74.8
2023-05-22T06:18:03.176Z,74.8
2023-05-22T06:21:03.116Z,74.8
2023-05-22T06:24:03.023Z,74.8
2023-05-22T06:27:03.113Z,72
2023-05-22T06:30:04.705Z,72
2023-05-22T06:33:03.362Z,72
2023-05-22T06:36:03.008Z,72
2023-05-22T06:39:03.565Z,72
2023-05-22T06:42:03.016Z,70.2
2023-05-22T06:45:03.084Z,70.2
2023-05-22T06:48:03.167Z,70.2
2023-05-22T06:51:03.055Z,70.2
2023-05-22T06:54:03.046Z,70.2
2023-05-22T06:57:03.072Z,70.2
2023-05-22T07:00:03.635Z,70.2
2023-05-22T07:03:03.116Z,69.4
2023-05-22T07:06:03.341Z,69.4
2023-05-22T07:09:03.031Z,69.4
2023-05-22T07:12:02.982Z,69.4
2023-05-22T07:15:03.007Z,69.4
2023-05-22T07:18:03.167Z,69.4
2023-05-22T07:21:03.073Z,68.2
2023-05-22T07:24:03.047Z,68.2
2023-05-22T07:27:03.041Z,68.2
2023-05-22T07:30:03.041Z,68.2
2023-05-22T07:33:03.147Z,68.2
2023-05-22T07:36:03.446Z,68.2
2023-05-22T07:39:03.307Z,68.1
2023-05-22T07:42:04.345Z,68.1
2023-05-22T07:45:03.058Z,68.1
2023-05-22T07:48:03.081Z,68.1
2023-05-22T07:51:03.058Z,68.1
2023-05-22T07:54:03.219Z,66.9
2023-05-22T07:57:03.013Z,66.9
2023-05-22T08:00:03.137Z,66.9
2023-05-22T08:03:03.304Z,66.9
2023-05-22T08:06:03.077Z,66.9
2023-05-22T08:09:03.015Z,66.9
2023-05-22T08:12:03.008Z,66.9
2023-05-22T08:15:03.111Z,66.9
2023-05-22T08:18:03.162Z,66.9
2023-05-22T08:21:03.020Z,66.9
2023-05-22T08:24:03.144Z,66.3
2023-05-22T08:27:03.069Z,66.3
2023-05-22T08:30:03.134Z,66.3
2023-05-22T08:33:03.065Z,66.3
2023-05-22T08:36:03.458Z,66.6
2023-05-22T08:39:03.793Z,66.6
2023-05-22T08:42:03.453Z,66.6
2023-05-22T08:45:03.968Z,66.6
2023-05-22T08:48:03.649Z,66.6
2023-05-22T08:51:06.373Z,65.2
2023-05-22T08:54:12.167Z,65.2
2023-05-22T09:00:03.845Z,65.2
2023-05-22T09:03:03.711Z,65.2
2023-05-22T09:06:03.501Z,63.8
2023-05-22T09:09:03.439Z,63.8
2023-05-22T09:12:03.359Z,63.8
2023-05-22T09:15:03.662Z,63.8
2023-05-22T09:18:03.740Z,63.8
2023-05-22T09:24:04.035Z,63.8
2023-05-22T09:27:03.493Z,63.8
2023-05-22T09:30:03.726Z,63.8
2023-05-22T09:33:03.587Z,63.8
2023-05-22T09:36:03.646Z,63.6
2023-05-22T09:39:03.470Z,63.6
2023-05-22T09:42:03.459Z,63.6
2023-05-22T09:45:03.500Z,63.6
2023-05-22T09:48:03.615Z,63.6
2023-05-22T09:51:03.483Z,63.6
2023-05-22T09:54:03.456Z,63.6
2023-05-22T09:57:03.590Z,63.6
2023-05-22T10:00:03.721Z,63.6
2023-05-22T10:03:03.598Z,63.6
2023-05-22T10:06:03.505Z,63.2
2023-05-22T10:09:04.120Z,63.2
2023-05-22T10:12:03.526Z,63.2
2023-05-22T10:15:03.512Z,63.2
2023-05-22T10:18:03.779Z,63.2
2023-05-22T10:21:03.483Z,63.2
2023-05-22T10:24:03.475Z,63.2
2023-05-22T10:27:03.496Z,63.2
2023-05-22T10:30:03.633Z,62
2023-05-22T10:33:03.748Z,62
2023-05-22T10:36:03.500Z,62
2023-05-22T10:39:03.531Z,62
2023-05-22T10:42:03.645Z,62
2023-05-22T10:45:03.525Z,62
2023-05-22T10:48:03.655Z,61.3
2023-05-22T10:51:03.480Z,61.3
2023-05-22T10:54:03.524Z,61.3
2023-05-22T10:57:03.497Z,61.3
2023-05-22T11:00:03.657Z,61.3
2023-05-22T11:03:20.757Z,61.3
2023-05-22T11:06:03.603Z,61.3
2023-05-22T11:09:03.543Z,61.3
2023-05-22T11:12:03.673Z,60.7
2023-05-22T11:15:03.563Z,60.7
2023-05-22T11:18:03.585Z,60.7
2023-05-22T11:21:03.525Z,60.7
2023-05-22T11:24:03.796Z,60.7
2023-05-22T11:27:03.494Z,60.7
2023-05-22T11:30:03.885Z,60.7
2023-05-22T11:33:03.724Z,60.7
2023-05-22T11:36:03.490Z,60.7
2023-05-22T11:39:03.518Z,60.7
2023-05-22T11:42:03.551Z,60.7
2023-05-22T11:45:03.614Z,60.7
2023-05-22T11:48:03.583Z,60
2023-05-22T11:51:03.467Z,60
2023-05-22T11:54:03.547Z,60
2023-05-22T11:57:03.539Z,60
2023-05-22T12:00:03.750Z,60
2023-05-22T12:03:03.740Z,60
2023-05-22T12:06:03.634Z,60
2023-05-22T12:09:03.499Z,60
2023-05-22T12:12:03.574Z,60
2023-05-22T12:15:03.576Z,60
2023-05-22T12:18:04.944Z,60
2023-05-22T12:21:03.588Z,60
2023-05-22T12:24:03.509Z,60
2023-05-22T12:27:03.406Z,59.6
2023-05-22T12:30:03.816Z,59.6
2023-05-22T12:33:03.678Z,59.6
2023-05-22T12:36:03.529Z,59.6
2023-05-22T12:39:03.530Z,59.6
2023-05-22T12:42:03.549Z,59.6
2023-05-22T12:45:03.447Z,59.6
2023-05-22T12:48:03.581Z,59.6
2023-05-22T12:51:03.575Z,59.6
2023-05-22T12:54:03.702Z,59.6
2023-05-22T12:57:03.514Z,59.6
2023-05-22T13:00:03.941Z,59.6
2023-05-22T13:03:03.696Z,59.6
2023-05-22T13:06:03.562Z,59.6
2023-05-22T13:09:03.734Z,59.5
2023-05-22T13:12:03.649Z,59.5
2023-05-22T13:15:03.515Z,59.5
2023-05-22T13:18:03.553Z,59.5
2023-05-22T13:21:03.399Z,59.5
2023-05-22T13:24:03.519Z,59.5
2023-05-22T13:27:03.538Z,59.5
2023-05-22T13:30:03.762Z,59.5
2023-05-22T13:33:03.613Z,59.5
2023-05-22T13:36:03.524Z,59.5
2023-05-22T13:39:03.499Z,59.5
2023-05-22T13:42:03.564Z,59.5
2023-05-22T13:45:03.564Z,59.5
2023-05-22T13:48:03.621Z,59.5
2023-05-22T13:51:03.434Z,59.5
2023-05-22T13:54:03.432Z,59.5
2023-05-22T13:57:03.491Z,59.5
2023-05-22T14:00:03.616Z,59.5
2023-05-22T14:03:03.959Z,58.5
2023-05-22T14:06:03.633Z,58.5
2023-05-22T14:09:03.494Z,58.5
2023-05-22T14:12:03.587Z,58.5
2023-05-22T14:15:03.557Z,58.5
2023-05-22T14:18:03.547Z,58.2
2023-05-22T14:21:06.930Z,58.2
2023-05-22T14:24:03.535Z,58.2
2023-05-22T14:27:03.529Z,58.2
2023-05-22T14:30:03.513Z,58.2
2023-05-22T14:33:03.760Z,59
2023-05-22T14:36:03.516Z,59
2023-05-22T14:39:03.544Z,59
2023-05-22T14:42:03.561Z,59
2023-05-22T14:45:03.661Z,59
2023-05-22T14:48:03.618Z,59
2023-05-22T14:51:03.486Z,59
2023-05-22T14:54:04.512Z,59
2023-05-22T14:57:03.483Z,59
2023-05-22T15:00:03.633Z,56
2023-05-22T15:03:04.319Z,56
2023-05-22T15:06:03.625Z,56
2023-05-22T15:09:03.419Z,56
2023-05-22T15:12:03.505Z,56
2023-05-22T15:15:03.655Z,56
2023-05-22T15:18:03.790Z,56
2023-05-22T15:21:03.616Z,56
2023-05-22T15:24:03.652Z,56
2023-05-22T15:27:03.536Z,56
2023-05-22T15:30:03.779Z,56
2023-05-22T15:33:03.906Z,56
2023-05-22T15:36:03.570Z,56.3
2023-05-22T15:39:03.619Z,56.3
2023-05-22T15:42:09.324Z,56.3
2023-05-22T15:45:03.656Z,56.3
2023-05-22T15:48:03.645Z,56.5
2023-05-22T15:51:03.555Z,56.5
2023-05-22T15:54:03.463Z,56.5
2023-05-22T15:57:03.477Z,56.5
2023-05-22T16:00:03.673Z,56.5
2023-05-22T16:03:03.804Z,56.5
2023-05-22T16:06:03.553Z,56.5
2023-05-22T16:09:03.492Z,56.5
2023-05-22T16:12:03.603Z,56.5
2023-05-22T16:15:07.337Z,56.5
2023-05-22T16:18:03.704Z,56.5
2023-05-22T16:21:03.533Z,59.9
2023-05-22T16:24:03.695Z,59.9
2023-05-22T16:27:03.582Z,59.9
2023-05-22T16:30:03.588Z,59.9
2023-05-22T16:33:03.763Z,59.9
2023-05-22T16:36:03.572Z,59.9
2023-05-22T16:39:03.478Z,59.9
2023-05-22T16:42:03.519Z,59.9
2023-05-22T16:45:03.726Z,59.9
2023-05-22T16:48:03.744Z,59.9
2023-05-22T16:51:03.710Z,59.9
2023-05-22T16:54:03.473Z,59.9
2023-05-22T16:57:03.628Z,59.9
2023-05-22T17:00:04.049Z,59.9
2023-05-22T17:03:03.785Z,59.9
2023-05-22T17:06:03.618Z,59.9
2023-05-22T17:09:03.693Z,63.3
2023-05-22T17:12:03.504Z,63.3
2023-05-22T17:15:03.524Z,63.3
2023-05-22T17:18:03.687Z,63.3
2023-05-22T17:21:03.749Z,63.3
2023-05-22T17:24:03.552Z,63.3
2023-05-22T17:27:03.459Z,63.3
2023-05-22T17:30:03.674Z,63.3
2023-05-22T17:33:03.683Z,62.2
2023-05-22T17:36:03.475Z,62.2
2023-05-22T17:39:03.484Z,62.2
2023-05-22T17:42:03.561Z,62.2
2023-05-22T17:45:03.521Z,62.2
2023-05-22T17:48:03.699Z,62.2
2023-05-22T17:51:03.635Z,62.2
2023-05-22T17:54:03.503Z,62.2
2023-05-22T17:57:03.468Z,62.2
2023-05-22T18:00:03.640Z,62.2
2023-05-22T18:03:03.782Z,62.2
2023-05-22T18:06:03.652Z,62.2
2023-05-22T18:09:03.584Z,64.9
2023-05-22T18:12:03.755Z,64.9
2023-05-22T18:15:03.642Z,64.9
2023-05-22T18:18:03.703Z,64.9
2023-05-22T18:21:03.528Z,64.9
2023-05-22T18:24:03.566Z,64.9
2023-05-22T18:27:03.569Z,64.9
2023-05-22T18:30:03.526Z,64.9
2023-05-22T18:33:03.586Z,62.1
2023-05-22T18:36:03.457Z,62.1
2023-05-22T18:39:03.554Z,62.1
2023-05-22T18:42:03.566Z,62.1
2023-05-22T18:45:03.581Z,62.1
2023-05-22T18:48:03.735Z,65.9
2023-05-22T18:51:03.538Z,65.9
2023-05-22T18:54:03.500Z,65.9
2023-05-22T18:57:03.570Z,65.9
2023-05-22T19:00:03.721Z,68
2023-05-22T19:03:03.653Z,68
2023-05-22T19:06:03.540Z,68
2023-05-22T19:09:03.528Z,68.4
2023-05-22T19:12:03.623Z,68.4
2023-05-22T19:15:03.734Z,68.4
2023-05-22T19:18:03.594Z,68.4
2023-05-22T19:21:03.464Z,70.3
2023-05-22T19:24:03.448Z,70.3
2023-05-22T19:27:03.698Z,70.3
2023-05-22T19:30:03.655Z,70.3
2023-05-22T19:33:04.153Z,73
2023-05-22T19:36:03.586Z,73
2023-05-22T19:39:03.382Z,73
2023-05-22T19:42:03.436Z,73.8
2023-05-22T19:45:03.427Z,75.3
2023-05-22T19:48:03.536Z,75.3
2023-05-22T19:51:03.498Z,76.2
2023-05-22T19:54:03.504Z,76.2
2023-05-22T19:57:03.444Z,77.8
2023-05-22T20:00:03.612Z,77.8
2023-05-22T20:03:03.881Z,77.8
2023-05-22T20:06:03.517Z,77.8
2023-05-22T20:09:03.394Z,79.9
2023-05-22T20:12:03.467Z,79.9
2023-05-22T20:15:03.501Z,79.9
2023-05-22T20:18:03.631Z,81.7
2023-05-22T20:21:03.459Z,81.7
2023-05-22T20:24:03.546Z,81.7
2023-05-22T20:27:03.546Z,82.5
2023-05-22T20:30:03.440Z,82.5
2023-05-22T20:33:03.781Z,82.5
2023-05-22T20:36:03.549Z,82.5
2023-05-22T20:39:03.529Z,82.5
2023-05-22T20:42:03.404Z,82.5
2023-05-22T20:45:04.134Z,82.5
2023-05-22T20:48:03.486Z,82.5
2023-05-22T20:51:03.451Z,82.5
2023-05-22T20:54:03.421Z,82.5
2023-05-22T20:57:03.543Z,82.5
2023-05-22T21:00:03.595Z,82.5
2023-05-22T21:03:03.672Z,82.5
2023-05-22T21:06:03.526Z,82.5
2023-05-22T21:09:03.724Z,82.5
2023-05-22T21:12:03.548Z,84.2
2023-05-22T21:15:03.556Z,84.2
2023-05-22T21:18:03.545Z,84.2
2023-05-22T21:21:03.466Z,84.2
2023-05-22T21:24:03.524Z,84.2
2023-05-22T21:27:03.368Z,84.2
2023-05-22T21:30:03.501Z,84.2
2023-05-22T21:33:03.605Z,84.2
2023-05-22T21:36:03.436Z,84.2
2023-05-22T21:39:03.462Z,84.2
2023-05-22T21:42:03.520Z,84.2
2023-05-22T21:45:03.518Z,84.2
2023-05-22T21:48:03.523Z,84.2
2023-05-22T21:51:03.433Z,83.8
2023-05-22T21:54:03.425Z,83.8
2023-05-22T21:57:03.677Z,83.8
2023-05-22T22:00:04.610Z,83.8
2023-05-22T22:03:03.732Z,83.8
2023-05-22T22:06:03.391Z,83.8
2023-05-22T22:09:03.472Z,84
2023-05-22T22:12:03.526Z,84
2023-05-22T22:15:03.462Z,84
2023-05-22T22:18:03.684Z,84
2023-05-22T22:21:03.400Z,84
2023-05-22T22:24:03.493Z,84
2023-05-22T22:27:03.446Z,84.5
2023-05-22T22:30:03.544Z,84.5
2023-05-22T22:33:03.751Z,84.5
2023-05-22T22:36:03.517Z,84.5
2023-05-22T22:39:03.423Z,84.5
2023-05-22T22:42:03.424Z,84.5
2023-05-22T22:45:03.428Z,84.2
2023-05-22T22:48:03.616Z,84.2
2023-05-22T22:51:03.488Z,84.2
2023-05-22T22:54:03.563Z,84.2
2023-05-22T22:57:03.515Z,84.2
2023-05-22T23:00:03.475Z,84.2
2023-05-22T23:03:03.530Z,84.2
2023-05-22T23:06:03.442Z,84.2
2023-05-22T23:09:03.486Z,84.4
2023-05-22T23:12:03.381Z,84.4
2023-05-22T23:15:03.369Z,84.4
2023-05-22T23:18:03.724Z,84.4
2023-05-22T23:21:03.526Z,84.1
2023-05-22T23:24:03.455Z,84.1
2023-05-22T23:27:03.455Z,84.1
2023-05-22T23:30:03.557Z,84.1
2023-05-22T23:33:03.619Z,84.1
2023-05-22T23:36:03.543Z,83.9
2023-05-22T23:39:03.491Z,83.9
2023-05-22T23:42:03.380Z,83.9
2023-05-22T23:45:03.502Z,83.9
2023-05-22T23:48:03.628Z,83.9
2023-05-22T23:51:03.400Z,83.9
2023-05-22T23:54:03.492Z,83.9
2023-05-22T23:57:03.508Z,83.9
